createdAt,value
2019-04-16T00:00:51.152Z,27.80
2019-04-16T00:05:59.161Z,33.17
2019-04-16T00:11:09.440Z,39.70
2019-04-16T00:16:14.892Z,35.43
2019-04-16T00:21:47.085Z,36.13
2019-04-16T00:26:52.550Z,35.27
2019-04-16T00:31:59.449Z,34.83
2019-04-16T00:37:04.805Z,35.50
2019-04-16T00:42:11.297Z,38.73
2019-04-16T00:47:35.712Z,37.07
2019-04-16T00:53:00.013Z,41.97
2019-04-16T00:58:19.797Z,38.47
2019-04-16T01:03:24.813Z,37.90
2019-04-16T01:08:53.919Z,40.53
2019-04-16T01:14:00.725Z,38.80
2019-04-16T01:19:10.067Z,38.50
2019-04-16T01:24:34.019Z,38.83
2019-04-16T01:29:39.471Z,38.83
2019-04-16T01:34:55.275Z,37.53
2019-04-16T01:40:21.826Z,36.53
2019-04-16T01:45:29.787Z,38.70
2019-04-16T01:50:35.515Z,39.80
2019-04-16T01:55:42.443Z,44.83
2019-04-16T02:00:47.771Z,36.90
2019-04-16T02:05:54.890Z,44.83
2019-04-16T02:11:00.431Z,37.83
2019-04-16T02:16:25.928Z,31.20
2019-04-16T02:21:32.772Z,40.73
2019-04-16T02:26:38.225Z,48.43
2019-04-16T02:32:02.727Z,36.07
2019-04-16T02:37:27.342Z,32.13
2019-04-16T02:42:33.017Z,37.67
2019-04-16T02:47:41.879Z,39.97
2019-04-16T02:52:50.464Z,35.90
2019-04-16T02:58:01.833Z,32.50
2019-04-16T03:03:09.191Z,43.50
2019-04-16T03:08:14.550Z,36.03
2019-04-16T03:13:22.979Z,33.83
2019-04-16T03:18:28.025Z,34.40
2019-04-16T03:23:36.730Z,36.27
2019-04-16T03:28:40.403Z,38.17
2019-04-16T03:34:05.044Z,32.93
2019-04-16T03:39:22.100Z,34.67
2019-04-16T03:44:38.956Z,36.47
2019-04-16T03:49:56.360Z,36.23
2019-04-16T03:55:03.204Z,34.33
2019-04-16T04:00:27.818Z,36.33
2019-04-16T04:05:35.076Z,32.67
2019-04-16T04:10:52.058Z,33.43
2019-04-16T04:15:58.599Z,29.43
2019-04-16T04:21:04.708Z,36.57
2019-04-16T04:26:29.229Z,29.83
2019-04-16T04:31:53.932Z,31.03
2019-04-16T04:37:11.085Z,31.20
2019-04-16T04:42:28.420Z,23.53
2019-04-16T04:47:34.586Z,29.53
2019-04-16T04:52:40.379Z,30.30
2019-04-16T04:57:45.923Z,30.23
2019-04-16T05:03:15.514Z,34.83
2019-04-16T05:08:33.546Z,23.90
2019-04-16T05:13:39.271Z,29.83
2019-04-16T05:18:44.815Z,24.93
2019-04-16T05:23:50.437Z,21.80
2019-04-16T05:28:57.931Z,24.07
2019-04-16T05:34:06.059Z,22.27
2019-04-16T05:39:10.532Z,25.10
2019-04-16T05:44:35.331Z,25.30
2019-04-16T05:49:40.763Z,23.70
2019-04-16T05:55:01.522Z,36.83
2019-04-16T06:00:10.497Z,23.33
2019-04-16T06:05:37.915Z,25.20
2019-04-16T06:10:43.268Z,36.73
2019-04-16T06:15:54.089Z,26.87
2019-04-16T06:21:06.870Z,36.03
2019-04-16T06:26:35.155Z,29.90
2019-04-16T06:31:48.948Z,28.90
2019-04-16T06:37:20.976Z,31.43
2019-04-16T06:42:47.516Z,27.43
2019-04-16T06:48:00.675Z,32.40
2019-04-16T06:53:26.537Z,36.07
2019-04-16T06:58:50.339Z,28.90
2019-04-16T07:03:59.641Z,35.07
2019-04-16T07:09:23.421Z,25.70
2019-04-16T07:14:27.517Z,30.83
2019-04-16T07:19:33.635Z,25.47
2019-04-16T07:24:39.926Z,27.77
2019-04-16T07:35:21.837Z,27.57
2019-04-16T07:40:31.716Z,25.53
2019-04-16T07:45:51.755Z,24.63
2019-04-16T07:51:01.568Z,25.90
2019-04-16T07:56:14.440Z,26.80
2019-04-16T08:01:22.115Z,25.60
2019-04-16T08:06:27.837Z,19.13
2019-04-16T08:11:34.896Z,22.67
2019-04-16T08:16:47.283Z,22.60
2019-04-16T08:22:08.247Z,20.97
2019-04-16T08:27:17.821Z,14.70
2019-04-16T08:32:20.979Z,11.33
2019-04-16T08:37:26.400Z,12.70
2019-04-16T08:42:43.889Z,17.97
2019-04-16T08:47:38.896Z,15.83
2019-04-16T08:52:44.457Z,12.23
2019-04-16T08:57:50.059Z,15.77
2019-04-16T09:02:58.071Z,10.57
2019-04-16T09:08:12.384Z,10.20
2019-04-16T09:13:24.541Z,10.13
2019-04-16T09:18:49.936Z,8.33
2019-04-16T09:24:14.056Z,10.03
2019-04-16T09:29:39.141Z,6.50
2019-04-16T09:35:08.130Z,8.53
2019-04-16T09:40:15.977Z,15.90
2019-04-16T09:45:12.329Z,10.37
2019-04-16T09:50:17.897Z,11.57
2019-04-16T09:55:23.497Z,11.70
2019-04-16T10:00:36.339Z,11.20
2019-04-16T10:05:41.329Z,10.97
2019-04-16T10:10:46.399Z,10.47
2019-04-16T10:15:51.667Z,11.07
2019-04-16T10:20:57.016Z,15.43
2019-04-16T10:26:01.970Z,10.40
2019-04-16T10:31:07.838Z,8.93
2019-04-16T10:36:13.487Z,8.90
2019-04-16T10:47:00.429Z,10.90
2019-04-16T10:52:07.759Z,8.67
2019-04-16T10:57:27.080Z,9.60
2019-04-16T11:02:36.797Z,9.57
2019-04-16T11:07:44.050Z,7.90
2019-04-16T11:12:49.411Z,8.07
2019-04-16T11:17:54.990Z,6.53
2019-04-16T11:23:00.214Z,8.53
2019-04-16T11:28:05.442Z,8.67
2019-04-16T11:33:10.950Z,17.93
2019-04-16T11:38:17.729Z,10.07
2019-04-16T11:43:23.228Z,9.93
2019-04-16T11:48:28.683Z,7.57
2019-04-16T11:53:34.510Z,7.60
2019-04-16T11:58:46.145Z,9.10
2019-04-16T12:03:56.124Z,9.50
2019-04-16T12:09:17.152Z,8.90
2019-04-16T12:14:41.811Z,7.80
2019-04-16T12:19:47.126Z,9.43
2019-04-16T12:25:10.757Z,12.33
2019-04-16T12:30:32.040Z,9.27
2019-04-16T12:35:45.527Z,11.03
2019-04-16T12:41:09.045Z,10.90
2019-04-16T12:46:18.845Z,9.40
2019-04-16T12:51:28.060Z,12.10
2019-04-16T12:56:52.479Z,8.97
2019-04-16T13:01:59.439Z,8.00
2019-04-16T13:07:09.481Z,18.17
2019-04-16T13:12:22.999Z,7.10
2019-04-16T13:17:39.240Z,9.70
2019-04-16T13:22:54.839Z,5.77
2019-04-16T13:28:20.350Z,6.30
2019-04-16T13:33:26.885Z,6.00
2019-04-16T13:38:37.560Z,6.93
2019-04-16T13:43:51.966Z,6.47
2019-04-16T13:48:59.619Z,6.17
2019-04-16T13:54:10.524Z,9.20
2019-04-16T14:04:21.565Z,10.13
2019-04-16T14:09:27.359Z,7.50
2019-04-16T14:14:32.706Z,4.60
2019-04-16T14:19:38.812Z,9.60
2019-04-16T14:24:44.354Z,5.97
2019-04-16T14:29:49.882Z,7.43
2019-04-16T14:34:56.922Z,9.70
2019-04-16T14:40:15.642Z,6.33
2019-04-16T14:45:22.763Z,5.53
2019-04-16T14:50:28.921Z,9.10
2019-04-16T14:55:59.031Z,7.60
2019-04-16T15:00:53.123Z,6.80
2019-04-16T15:06:12.133Z,6.73
2019-04-16T15:11:35.530Z,8.63
2019-04-16T15:16:45.482Z,5.97
2019-04-16T15:21:58.695Z,6.30
2019-04-16T15:27:17.840Z,8.77
2019-04-16T15:32:30.705Z,5.50
2019-04-16T15:37:46.717Z,5.03
2019-04-16T15:42:56.353Z,4.60
2019-04-16T15:48:18.080Z,5.27
2019-04-16T15:53:23.668Z,7.20
2019-04-16T15:58:32.539Z,6.07
2019-04-16T16:03:48.612Z,22.23
2019-04-16T16:08:58.146Z,6.60
2019-04-16T16:14:03.901Z,5.07
2019-04-16T16:19:12.046Z,8.70
2019-04-16T16:24:16.555Z,7.90
2019-04-16T16:29:22.157Z,8.27
2019-04-16T16:34:27.671Z,13.80
2019-04-16T16:39:33.424Z,10.20
2019-04-16T16:44:39.042Z,9.97
2019-04-16T16:49:44.499Z,13.53
2019-04-16T16:54:51.187Z,4.73
2019-04-16T17:00:03.899Z,15.57
2019-04-16T17:05:10.819Z,6.00
2019-04-16T17:10:27.977Z,36.37
2019-04-16T17:15:33.040Z,9.47
2019-04-16T17:20:38.308Z,20.00
2019-04-16T17:25:45.121Z,20.53
2019-04-16T17:30:50.377Z,17.83
2019-04-16T17:35:55.794Z,39.73
2019-04-16T17:41:05.128Z,13.63
2019-04-16T17:51:53.510Z,13.70
2019-04-16T17:57:22.947Z,16.00
2019-04-16T18:02:28.082Z,15.33
2019-04-16T18:07:38.925Z,15.20
2019-04-16T18:12:56.483Z,14.50
2019-04-16T18:18:03.308Z,16.80
2019-04-16T18:23:10.342Z,16.10
2019-04-16T18:28:25.826Z,16.70
2019-04-16T18:33:32.459Z,22.67
2019-04-16T18:39:15.193Z,22.97
2019-04-16T18:44:37.325Z,18.97
2019-04-16T18:50:05.999Z,22.50
2019-04-16T18:55:11.674Z,25.10
2019-04-16T19:05:57.045Z,24.57
2019-04-16T19:11:02.851Z,26.47
2019-04-16T19:16:08.208Z,24.10
2019-04-16T19:21:13.482Z,17.57
2019-04-16T19:26:18.722Z,16.60
2019-04-16T19:31:24.216Z,17.70
2019-04-16T19:36:49.025Z,21.43
2019-04-16T19:41:57.204Z,17.93
2019-04-16T19:47:01.308Z,20.37
2019-04-16T19:52:06.592Z,20.07
2019-04-16T19:57:12.087Z,22.63
2019-04-16T20:02:17.902Z,18.87
2019-04-16T20:07:23.072Z,16.97
2019-04-16T20:12:28.866Z,19.63
2019-04-16T20:17:34.239Z,16.70
2019-04-16T20:22:39.476Z,30.43
2019-04-16T20:27:44.438Z,20.90
2019-04-16T20:32:49.790Z,21.47
2019-04-16T20:37:55.297Z,18.43
2019-04-16T20:43:01.163Z,27.00
2019-04-16T20:48:09.107Z,26.43
2019-04-16T20:53:13.086Z,26.50
2019-04-16T20:58:18.414Z,24.93
2019-04-16T21:03:23.630Z,27.37
2019-04-16T21:08:28.843Z,32.60
2019-04-16T21:13:34.019Z,31.70
2019-04-16T21:18:39.606Z,38.67
2019-04-16T21:23:44.732Z,68.17
2019-04-16T21:28:55.009Z,52.23
2019-04-16T21:34:24.159Z,44.97
2019-04-16T21:39:26.946Z,36.60
2019-04-16T21:44:31.831Z,34.17
2019-04-16T21:49:38.929Z,26.53
2019-04-16T21:54:43.832Z,31.40
2019-04-16T21:59:50.319Z,26.00
2019-04-16T22:04:56.204Z,29.07
2019-04-16T22:10:03.134Z,28.70
2019-04-16T22:15:08.754Z,39.60
2019-04-16T22:20:13.750Z,28.23
2019-04-16T22:25:19.311Z,27.77
2019-04-16T22:30:24.463Z,25.93
2019-04-16T22:35:31.813Z,31.53
2019-04-16T22:40:44.136Z,29.87
2019-04-16T22:45:52.365Z,28.50
2019-04-16T22:50:57.880Z,30.30
2019-04-16T22:56:03.270Z,28.90
2019-04-16T23:01:08.791Z,29.33
2019-04-16T23:06:14.051Z,35.27
2019-04-16T23:11:39.059Z,23.27
2019-04-16T23:16:44.803Z,25.07
2019-04-16T23:21:50.105Z,26.80
2019-04-16T23:26:55.471Z,23.90
2019-04-16T23:32:00.750Z,22.63
2019-04-16T23:37:08.738Z,29.47
2019-04-16T23:42:18.830Z,24.80
2019-04-16T23:47:22.209Z,21.53
2019-04-16T23:52:34.525Z,24.97
2019-04-16T23:57:57.559Z,23.10
